Time;durP1;ratioP1;P1;durP2;ratioP2;P2;SDS_P1;SDS_P2;PMS_P1;PMS_P2;Temp;Humidity;BMP_temperature;BMP_pressure;BME280_temperature;BME280_humidity;BME280_pressure;Samples;Min_cycle;Max_cycle;Signal;HPM_P1;HPM_P2
2022/09/13 00:01:54;;;;;;;;;;;24.70;66.20;;;;;;6110277;28;19934;-41
2022/09/13 00:04:56;;;;;;;;;;;24.60;66.10;;;;;;6115946;28;20036;-40
2022/09/13 00:07:57;;;;;;;;;;;24.90;66.20;;;;;;6115947;28;20454;-41
2022/09/13 00:10:58;;;;;;;;;;;24.50;65.70;;;;;;6113647;28;20100;-39
2022/09/13 00:14:01;;;;;;;;;;;24.80;66.00;;;;;;6113800;28;19934;-40
2022/09/13 00:17:02;;;;;;;;;;;24.70;65.70;;;;;;6116264;28;19973;-41
2022/09/13 00:20:08;;;;;;;;;;;24.70;65.80;;;;;;6114064;28;19991;-40
2022/09/13 00:23:09;;;;;;;;;;;25.10;65.90;;;;;;6111097;28;19934;-39
2022/09/13 00:26:12;;;;;;;;;;;25.10;65.90;;;;;;6112707;28;19941;-40
2022/09/13 00:29:14;;;;;;;;;;;24.60;65.50;;;;;;6112971;28;19930;-41
2022/09/13 00:32:15;;;;;;;;;;;25.00;65.60;;;;;;6114019;28;19926;-40
2022/09/13 00:35:16;;;;;;;;;;;24.70;65.70;;;;;;6106708;28;19934;-41
2022/09/13 00:38:18;;;;;;;;;;;24.90;65.70;;;;;;6112757;28;19926;-40
2022/09/13 00:41:19;;;;;;;;;;;25.10;65.80;;;;;;6115217;28;20037;-42
2022/09/13 00:44:36;;;;;;;;;;;24.80;65.40;;;;;;6114361;28;19950;-40
2022/09/13 00:47:39;;;;;;;;;;;24.70;65.20;;;;;;6111600;28;20052;-40
2022/09/13 00:50:42;;;;;;;;;;;25.20;65.60;;;;;;6111862;28;20841;-40
2022/09/13 00:53:47;;;;;;;;;;;25.10;65.40;;;;;;6128682;28;19930;-39
2022/09/13 00:56:50;;;;;;;;;;;24.70;65.30;;;;;;6101036;28;19942;-43
2022/09/13 00:59:53;;;;;;;;;;;24.90;65.40;;;;;;6111942;28;19938;-40
2022/09/13 01:02:57;;;;;;;;;;;24.70;65.30;;;;;;6116796;28;20629;-41
2022/09/13 01:06:01;;;;;;;;;;;24.70;65.40;;;;;;6110621;28;20648;-40
2022/09/13 01:09:03;;;;;;;;;;;24.80;65.30;;;;;;6105951;28;20277;-41
2022/09/13 01:12:07;;;;;;;;;;;24.80;65.30;;;;;;6108556;28;20802;-41
2022/09/13 01:15:09;;;;;;;;;;;24.80;65.30;;;;;;6105811;28;19930;-40
2022/09/13 01:18:11;;;;;;;;;;;24.70;65.30;;;;;;6112406;28;19930;-42
2022/09/13 01:21:27;;;;;;;;;;;24.80;65.20;;;;;;6108616;28;20387;-41
2022/09/13 01:24:38;;;;;;;;;;;25.10;64.60;;;;;;6108182;28;19934;-41
2022/09/13 01:27:48;;;;;;;;;;;24.90;65.10;;;;;;6105803;28;19988;-42
2022/09/13 01:30:58;;;;;;;;;;;24.70;65.00;;;;;;6108249;28;19973;-41
2022/09/13 01:34:06;;;;;;;;;;;24.90;65.20;;;;;;6107022;28;20156;-40
2022/09/13 01:37:20;;;;;;;;;;;24.70;64.90;;;;;;6105899;28;20056;-41
2022/09/13 01:40:31;;;;;;;;;;;24.70;65.00;;;;;;6104858;28;19930;-42
2022/09/13 01:43:39;;;;;;;;;;;24.90;65.10;;;;;;6107298;28;19977;-43
2022/09/13 01:46:46;;;;;;;;;;;24.90;64.80;;;;;;6104862;28;20776;-40
2022/09/13 01:49:53;;;;;;;;;;;24.70;64.70;;;;;;6106216;28;20700;-41
2022/09/13 01:52:56;;;;;;;;;;;25.00;64.90;;;;;;6102686;28;20001;-40
2022/09/13 01:56:01;;;;;;;;;;;24.90;64.00;;;;;;6097594;28;20360;-41
2022/09/13 01:59:05;;;;;;;;;;;24.90;64.70;;;;;;6103064;28;20012;-42
2022/09/13 02:02:10;;;;;;;;;;;24.80;64.60;;;;;;6104583;28;19977;-40
2022/09/13 02:05:13;;;;;;;;;;;24.90;64.70;;;;;;6108568;28;19952;-44
2022/09/13 02:08:16;;;;;;;;;;;25.10;64.80;;;;;;6107862;28;20548;-41
2022/09/13 02:11:21;;;;;;;;;;;24.80;64.50;;;;;;6105440;28;20175;-42
2022/09/13 02:14:26;;;;;;;;;;;25.20;64.90;;;;;;6108918;28;19934;-43
2022/09/13 02:17:30;;;;;;;;;;;24.50;64.40;;;;;;6108568;28;20782;-41
2022/09/13 02:20:34;;;;;;;;;;;24.70;64.60;;;;;;6107184;28;20457;-42
2022/09/13 02:23:38;;;;;;;;;;;24.60;64.50;;;;;;6106167;28;19930;-41
2022/09/13 02:26:40;;;;;;;;;;;25.30;65.50;;;;;;6108594;28;20005;-43
2022/09/13 02:29:44;;;;;;;;;;;24.60;64.40;;;;;;6104970;28;19957;-42
2022/09/13 02:32:49;;;;;;;;;;;25.00;64.70;;;;;;6107617;28;19984;-40
2022/09/13 02:35:52;;;;;;;;;;;24.80;64.70;;;;;;6107361;28;19926;-41
2022/09/13 02:38:57;;;;;;;;;;;24.70;64.40;;;;;;6118931;28;19945;-40
2022/09/13 02:42:03;;;;;;;;;;;24.90;64.50;;;;;;6110366;28;20147;-43
2022/09/13 02:45:05;;;;;;;;;;;25.20;64.50;;;;;;6108933;28;20004;-42
2022/09/13 02:48:09;;;;;;;;;;;25.00;65.10;;;;;;6108553;28;19974;-40
2022/09/13 02:51:14;;;;;;;;;;;24.90;64.40;;;;;;6112481;28;19936;-40
2022/09/13 02:54:23;;;;;;;;;;;24.90;64.40;;;;;;6109535;28;20762;-39
2022/09/13 02:57:28;;;;;;;;;;;25.10;64.50;;;;;;6104620;28;20490;-42
2022/09/13 03:00:30;;;;;;;;;;;24.90;64.40;;;;;;6110887;28;19973;-40
2022/09/13 03:03:32;;;;;;;;;;;24.80;64.60;;;;;;6113335;28;20268;-40
2022/09/13 03:06:33;;;;;;;;;;;24.60;64.40;;;;;;6113806;28;21349;-41
2022/09/13 03:09:35;;;;;;;;;;;24.90;64.70;;;;;;6112525;28;19974;-42
2022/09/13 03:12:43;;;;;;;;;;;24.80;64.60;;;;;;6115434;28;20644;-43
2022/09/13 03:15:52;;;;;;;;;;;24.60;64.20;;;;;;6113342;28;20054;-41
2022/09/13 03:18:59;;;;;;;;;;;24.80;64.30;;;;;;6113100;28;19930;-40
2022/09/13 03:22:08;;;;;;;;;;;24.70;64.30;;;;;;6112482;28;19939;-39
2022/09/13 03:25:14;;;;;;;;;;;24.80;64.40;;;;;;6115077;28;20048;-41
2022/09/13 03:28:20;;;;;;;;;;;25.00;64.30;;;;;;6109183;28;20630;-42
2022/09/13 03:31:32;;;;;;;;;;;24.90;64.40;;;;;;6107204;28;19970;-40
2022/09/13 03:34:43;;;;;;;;;;;24.60;64.30;;;;;;6109561;28;20040;-40
2022/09/13 03:37:47;;;;;;;;;;;24.60;64.30;;;;;;6103236;28;21630;-41
2022/09/13 03:40:52;;;;;;;;;;;25.20;64.60;;;;;;6106382;28;19973;-41
2022/09/13 03:43:56;;;;;;;;;;;24.80;64.40;;;;;;6106076;28;20052;-43
2022/09/13 03:47:00;;;;;;;;;;;24.80;64.40;;;;;;6108271;28;20116;-40
2022/09/13 03:50:03;;;;;;;;;;;24.90;64.60;;;;;;6106816;28;20355;-40
2022/09/13 03:53:06;;;;;;;;;;;25.10;64.70;;;;;;6106392;28;20049;-44
2022/09/13 03:56:12;;;;;;;;;;;24.90;64.60;;;;;;6101191;28;19934;-40
2022/09/13 03:59:14;;;;;;;;;;;24.70;64.40;;;;;;6102464;28;20068;-39
2022/09/13 04:02:16;;;;;;;;;;;24.80;64.30;;;;;;6107941;28;20041;-39
2022/09/13 04:05:18;;;;;;;;;;;25.30;64.80;;;;;;6107476;28;19934;-41
2022/09/13 04:08:19;;;;;;;;;;;24.70;64.70;;;;;;6108512;28;20185;-40
2022/09/13 04:11:21;;;;;;;;;;;24.70;64.70;;;;;;6106863;28;20127;-40
2022/09/13 04:14:25;;;;;;;;;;;24.60;64.60;;;;;;6108549;28;20242;-42
2022/09/13 04:17:26;;;;;;;;;;;24.80;64.80;;;;;;6101400;28;20052;-40
2022/09/13 04:20:28;;;;;;;;;;;24.70;64.60;;;;;;6102258;28;20176;-40
2022/09/13 04:23:30;;;;;;;;;;;25.10;63.90;;;;;;6101633;28;20520;-41
2022/09/13 04:26:33;;;;;;;;;;;24.80;64.70;;;;;;6099602;28;20195;-41
2022/09/13 04:29:35;;;;;;;;;;;24.60;64.60;;;;;;6098948;28;19934;-42
2022/09/13 04:32:36;;;;;;;;;;;24.90;64.70;;;;;;6099585;28;19944;-40
2022/09/13 04:35:38;;;;;;;;;;;24.70;64.70;;;;;;6098886;28;20234;-41
2022/09/13 04:38:39;;;;;;;;;;;24.80;64.60;;;;;;6102874;28;20044;-42
2022/09/13 04:41:43;;;;;;;;;;;25.10;65.10;;;;;;6097384;28;20008;-40
2022/09/13 04:44:48;;;;;;;;;;;24.90;64.80;;;;;;6099975;28;20230;-41
2022/09/13 04:47:50;;;;;;;;;;;24.80;64.60;;;;;;6100273;28;19930;-39
2022/09/13 04:50:52;;;;;;;;;;;25.00;64.80;;;;;;6098864;28;20017;-40
2022/09/13 04:53:54;;;;;;;;;;;24.50;64.50;;;;;;6098931;28;20513;-42
2022/09/13 04:56:55;;;;;;;;;;;24.90;64.70;;;;;;6091923;28;20008;-42
2022/09/13 04:59:56;;;;;;;;;;;24.80;64.70;;;;;;6095066;28;20318;-40
2022/09/13 05:02:58;;;;;;;;;;;24.70;64.60;;;;;;6094682;28;20221;-43
2022/09/13 05:06:02;;;;;;;;;;;24.70;64.70;;;;;;6097429;28;20036;-41
2022/09/13 05:09:04;;;;;;;;;;;24.80;64.70;;;;;;6100404;28;19930;-41
2022/09/13 05:12:06;;;;;;;;;;;24.90;64.70;;;;;;6095879;28;20033;-42
2022/09/13 05:15:08;;;;;;;;;;;24.40;64.30;;;;;;6099797;28;20232;-40
2022/09/13 05:18:09;;;;;;;;;;;25.00;64.90;;;;;;6096576;28;19930;-40
2022/09/13 05:21:11;;;;;;;;;;;24.80;64.90;;;;;;6097741;28;20489;-41
2022/09/13 05:24:12;;;;;;;;;;;24.60;64.80;;;;;;6099924;28;20049;-42
2022/09/13 05:27:14;;;;;;;;;;;24.70;64.90;;;;;;6102755;28;19934;-40
2022/09/13 05:30:15;;;;;;;;;;;24.90;64.70;;;;;;6106296;28;21521;-40
2022/09/13 05:33:17;;;;;;;;;;;24.70;64.90;;;;;;6109776;28;19934;-41
2022/09/13 05:36:19;;;;;;;;;;;24.40;64.90;;;;;;6093845;28;20056;-41
2022/09/13 05:39:21;;;;;;;;;;;25.10;65.10;;;;;;6098935;28;19934;-42
2022/09/13 05:42:42;;;;;;;;;;;25.00;65.00;;;;;;6104717;28;19938;-40
2022/09/13 05:45:46;;;;;;;;;;;24.80;64.90;;;;;;6096904;28;19996;-40
2022/09/13 05:48:48;;;;;;;;;;;24.50;64.70;;;;;;6093685;28;20362;-41
2022/09/13 05:51:50;;;;;;;;;;;24.50;64.80;;;;;;6090967;28;19945;-41
2022/09/13 05:54:51;;;;;;;;;;;25.10;65.30;;;;;;6102858;28;19940;-40
2022/09/13 05:57:53;;;;;;;;;;;24.80;64.70;;;;;;6085794;28;19934;-41
2022/09/13 06:00:54;;;;;;;;;;;25.00;65.20;;;;;;6104024;28;20062;-40
2022/09/13 06:03:57;;;;;;;;;;;24.60;64.70;;;;;;6095792;28;20048;-42
2022/09/13 06:06:59;;;;;;;;;;;25.10;65.00;;;;;;6091125;28;20834;-41
2022/09/13 06:10:00;;;;;;;;;;;24.90;64.90;;;;;;6090100;28;20871;-40
2022/09/13 06:13:01;;;;;;;;;;;25.00;65.10;;;;;;6088508;28;19934;-39
2022/09/13 06:16:03;;;;;;;;;;;24.70;64.80;;;;;;6058346;28;19941;-40
2022/09/13 06:19:05;;;;;;;;;;;24.70;64.90;;;;;;6086902;28;21011;-41
2022/09/13 06:22:07;;;;;;;;;;;25.00;64.90;;;;;;6059834;28;19934;-40
2022/09/13 06:25:08;;;;;;;;;;;25.30;65.30;;;;;;6077508;28;20041;-40
2022/09/13 06:28:10;;;;;;;;;;;24.50;64.80;;;;;;6074025;28;19941;-40
2022/09/13 06:31:13;;;;;;;;;;;24.90;65.00;;;;;;6056978;28;19949;-40
2022/09/13 06:34:15;;;;;;;;;;;25.10;65.00;;;;;;6044124;28;21197;-42
2022/09/13 06:37:17;;;;;;;;;;;24.90;64.90;;;;;;6059384;28;21480;-40
2022/09/13 06:40:19;;;;;;;;;;;24.70;64.70;;;;;;6039005;28;19941;-40
2022/09/13 06:43:26;;;;;;;;;;;24.90;62.30;;;;;;6053516;28;19949;-40
2022/09/13 06:46:28;;;;;;;;;;;24.90;64.70;;;;;;6006829;28;19941;-41
2022/09/13 06:49:30;;;;;;;;;;;25.00;63.80;;;;;;6000798;28;23296;-40
2022/09/13 06:52:36;;;;;;;;;;;25.10;64.90;;;;;;5958896;28;19934;-39
2022/09/13 06:55:37;;;;;;;;;;;24.60;64.30;;;;;;5984567;28;20013;-40
2022/09/13 06:58:41;;;;;;;;;;;24.80;64.60;;;;;;5940901;28;21791;-43
2022/09/13 07:01:42;;;;;;;;;;;25.30;64.40;;;;;;5949096;28;19934;-40
2022/09/13 07:04:46;;;;;;;;;;;24.90;64.70;;;;;;5919470;28;19934;-40
2022/09/13 07:07:48;;;;;;;;;;;24.70;64.70;;;;;;5908925;28;20025;-40
2022/09/13 07:10:49;;;;;;;;;;;24.90;64.80;;;;;;5905960;28;19934;-40
2022/09/13 07:13:51;;;;;;;;;;;25.00;64.80;;;;;;5894546;28;19941;-40
2022/09/13 07:16:53;;;;;;;;;;;24.80;64.80;;;;;;5884349;28;20033;-40
2022/09/13 07:19:55;;;;;;;;;;;25.30;64.90;;;;;;5856738;28;20575;-40
2022/09/13 07:22:57;;;;;;;;;;;24.90;64.70;;;;;;5918651;28;20044;-41
2022/09/13 07:26:01;;;;;;;;;;;25.00;64.60;;;;;;5874273;28;19934;-40
2022/09/13 07:29:04;;;;;;;;;;;24.60;64.40;;;;;;5879698;28;20017;-41
2022/09/13 07:32:05;;;;;;;;;;;24.70;63.90;;;;;;5848739;28;21031;-40
2022/09/13 07:35:07;;;;;;;;;;;25.10;64.50;;;;;;5844493;28;19934;-40
2022/09/13 07:38:09;;;;;;;;;;;24.90;64.30;;;;;;5869856;28;19935;-41
2022/09/13 07:41:11;;;;;;;;;;;25.40;64.50;;;;;;5854800;28;20411;-41
2022/09/13 07:44:13;;;;;;;;;;;25.40;64.50;;;;;;5853842;28;22773;-41
2022/09/13 07:47:14;;;;;;;;;;;25.00;64.20;;;;;;5794466;28;29835;-40
2022/09/13 07:50:16;;;;;;;;;;;25.20;64.50;;;;;;5807180;28;22832;-40
2022/09/13 07:53:18;;;;;;;;;;;25.80;64.20;;;;;;5842266;28;20060;-41
2022/09/13 07:56:20;;;;;;;;;;;25.30;64.00;;;;;;5860486;28;19934;-40
2022/09/13 07:59:22;;;;;;;;;;;25.20;64.10;;;;;;5811106;28;21050;-41
2022/09/13 08:02:28;;;;;;;;;;;25.20;64.20;;;;;;5767048;28;19934;-41
2022/09/13 08:05:29;;;;;;;;;;;25.30;63.80;;;;;;5780497;28;21979;-41
2022/09/13 08:08:32;;;;;;;;;;;26.00;64.70;;;;;;5819249;28;19938;-40
2022/09/13 08:11:34;;;;;;;;;;;24.90;63.80;;;;;;5785333;28;19941;-40
2022/09/13 08:14:35;;;;;;;;;;;25.00;63.90;;;;;;5797899;28;22008;-41
2022/09/13 08:17:37;;;;;;;;;;;25.40;64.10;;;;;;5818638;28;19978;-41
2022/09/13 08:20:39;;;;;;;;;;;25.30;64.00;;;;;;5778033;28;29090;-39
2022/09/13 08:23:41;;;;;;;;;;;25.40;63.70;;;;;;5788721;28;29396;-41
2022/09/13 08:26:43;;;;;;;;;;;25.40;64.00;;;;;;5842523;28;19938;-40
2022/09/13 08:29:45;;;;;;;;;;;25.20;63.20;;;;;;5850011;28;20513;-41
2022/09/13 08:32:48;;;;;;;;;;;25.60;64.00;;;;;;5828197;28;29389;-42
2022/09/13 08:35:51;;;;;;;;;;;25.40;63.90;;;;;;5799612;28;23033;-41
2022/09/13 08:38:56;;;;;;;;;;;25.50;63.30;;;;;;5784963;28;19941;-42
2022/09/13 08:42:01;;;;;;;;;;;25.50;63.90;;;;;;5793190;28;20552;-42
2022/09/13 08:45:03;;;;;;;;;;;25.50;63.40;;;;;;5834264;28;21957;-42
2022/09/13 08:48:08;;;;;;;;;;;25.40;63.60;;;;;;5844251;28;19934;-43
2022/09/13 08:51:20;;;;;;;;;;;25.70;63.90;;;;;;5814265;28;19935;-39
2022/09/13 08:54:22;;;;;;;;;;;25.50;63.70;;;;;;5829290;28;19936;-39
2022/09/13 08:57:25;;;;;;;;;;;25.70;63.80;;;;;;5813356;28;19934;-39
2022/09/13 09:00:31;;;;;;;;;;;25.40;63.90;;;;;;5763569;28;20006;-40
2022/09/13 09:03:37;;;;;;;;;;;25.60;63.90;;;;;;5791447;28;19942;-42
2022/09/13 09:06:39;;;;;;;;;;;25.60;64.00;;;;;;5741458;28;19934;-41
2022/09/13 09:09:44;;;;;;;;;;;25.20;63.80;;;;;;5705408;28;19934;-41
2022/09/13 09:12:48;;;;;;;;;;;24.90;63.40;;;;;;5794382;28;19945;-41
2022/09/13 09:15:52;;;;;;;;;;;25.30;63.60;;;;;;5759199;28;28043;-39
2022/09/13 09:18:55;;;;;;;;;;;25.80;64.00;;;;;;5767649;28;29603;-40
2022/09/13 09:21:58;;;;;;;;;;;25.90;64.10;;;;;;5767836;28;29926;-41
2022/09/13 09:25:00;;;;;;;;;;;25.60;64.10;;;;;;5799887;28;20072;-40
2022/09/13 09:28:08;;;;;;;;;;;25.70;63.80;;;;;;5786254;28;22004;-40
2022/09/13 09:31:13;;;;;;;;;;;25.50;64.00;;;;;;5796224;28;19934;-40
2022/09/13 09:34:21;;;;;;;;;;;25.30;63.50;;;;;;5823447;28;20061;-41
2022/09/13 09:37:24;;;;;;;;;;;25.60;63.60;;;;;;5858848;28;22655;-41
2022/09/13 09:40:27;;;;;;;;;;;25.70;63.90;;;;;;5830712;28;20003;-40
2022/09/13 09:43:37;;;;;;;;;;;25.10;63.50;;;;;;5822181;28;19941;-40
2022/09/13 09:46:40;;;;;;;;;;;25.80;64.20;;;;;;5811636;28;22455;-40
2022/09/13 09:53:03;;;;;;;;;;;25.30;63.70;;;;;;5764580;28;32759;-41
2022/09/13 09:56:14;;;;;;;;;;;25.50;64.10;;;;;;5790042;28;19934;-41
2022/09/13 09:59:24;;;;;;;;;;;25.80;64.10;;;;;;5814054;28;21499;-42
2022/09/13 10:02:26;;;;;;;;;;;25.90;64.20;;;;;;5788174;28;20052;-41
2022/09/13 10:05:29;;;;;;;;;;;26.00;64.70;;;;;;5790958;28;21253;-42
2022/09/13 10:08:32;;;;;;;;;;;25.40;63.60;;;;;;5749126;28;21251;-39
2022/09/13 10:11:38;;;;;;;;;;;25.70;63.90;;;;;;5765281;28;21110;-40
2022/09/13 10:14:41;;;;;;;;;;;25.40;63.80;;;;;;5742652;28;22790;-41
2022/09/13 10:17:44;;;;;;;;;;;25.60;63.90;;;;;;5775426;28;20348;-41
2022/09/13 10:20:58;;;;;;;;;;;25.50;63.90;;;;;;5812028;28;20032;-40
2022/09/13 10:24:15;;;;;;;;;;;25.40;63.40;;;;;;5875318;28;19934;-43
2022/09/13 10:27:21;;;;;;;;;;;25.50;63.90;;;;;;5884380;28;19941;-40
2022/09/13 10:30:30;;;;;;;;;;;24.70;63.20;;;;;;5882313;28;20000;-40
2022/09/13 10:33:33;;;;;;;;;;;25.30;64.10;;;;;;5889001;28;28080;-40
2022/09/13 10:36:35;;;;;;;;;;;25.70;64.10;;;;;;5876283;28;19941;-40
2022/09/13 10:39:58;;;;;;;;;;;25.60;63.90;;;;;;5858996;28;34518;-41
2022/09/13 10:43:02;;;;;;;;;;;25.30;63.70;;;;;;5913106;28;29109;-40
2022/09/13 10:46:05;;;;;;;;;;;25.80;63.90;;;;;;5873903;28;28710;-41
2022/09/13 10:49:27;;;;;;;;;;;25.50;62.90;;;;;;5892660;28;19957;-40
2022/09/13 10:52:30;;;;;;;;;;;25.90;64.70;;;;;;5903937;28;19943;-40
2022/09/13 10:55:33;;;;;;;;;;;25.50;64.00;;;;;;5902438;28;30856;-41
2022/09/13 10:58:35;;;;;;;;;;;25.60;63.90;;;;;;5917350;28;27644;-42
2022/09/13 11:01:43;;;;;;;;;;;25.70;64.10;;;;;;5907547;28;20032;-41
2022/09/13 11:04:54;;;;;;;;;;;25.40;63.80;;;;;;5917383;28;20579;-44
2022/09/13 11:08:06;;;;;;;;;;;25.80;63.90;;;;;;5914488;28;20057;-41
2022/09/13 11:11:10;;;;;;;;;;;25.70;64.10;;;;;;5941013;28;19990;-41
2022/09/13 11:14:18;;;;;;;;;;;25.80;64.20;;;;;;5941455;28;26073;-41
2022/09/13 11:17:25;;;;;;;;;;;25.30;63.90;;;;;;5870458;28;28397;-40
2022/09/13 11:20:31;;;;;;;;;;;25.70;64.10;;;;;;5951716;28;21027;-42
2022/09/13 11:23:40;;;;;;;;;;;25.70;64.10;;;;;;5921993;28;22141;-41
2022/09/13 11:26:46;;;;;;;;;;;25.70;64.00;;;;;;5926068;28;20290;-40
2022/09/13 11:30:02;;;;;;;;;;;25.40;64.50;;;;;;5905776;28;27986;-42
2022/09/13 11:33:12;;;;;;;;;;;25.40;63.80;;;;;;5851264;28;28693;-41
2022/09/13 11:36:23;;;;;;;;;;;25.40;64.00;;;;;;5896777;28;24436;-42
2022/09/13 11:39:30;;;;;;;;;;;25.70;64.10;;;;;;5897981;28;19961;-40
2022/09/13 11:42:37;;;;;;;;;;;25.50;64.20;;;;;;5918005;28;19934;-40
2022/09/13 11:45:40;;;;;;;;;;;25.70;64.40;;;;;;5884125;28;21242;-40
2022/09/13 11:48:53;;;;;;;;;;;25.60;64.30;;;;;;5898091;28;20008;-39
2022/09/13 11:52:01;;;;;;;;;;;25.50;64.00;;;;;;5911806;28;22005;-39
2022/09/13 11:55:10;;;;;;;;;;;25.50;64.60;;;;;;5875161;28;19935;-40
2022/09/13 11:58:14;;;;;;;;;;;25.90;64.60;;;;;;5825792;28;20037;-39
2022/09/13 12:01:18;;;;;;;;;;;25.70;64.60;;;;;;5801315;28;20032;-40
2022/09/13 12:04:22;;;;;;;;;;;25.70;64.40;;;;;;5810582;28;22309;-41
2022/09/13 12:07:31;;;;;;;;;;;25.60;64.40;;;;;;5849318;28;19941;-39
2022/09/13 12:10:37;;;;;;;;;;;25.80;64.60;;;;;;5810116;28;19934;-40
2022/09/13 12:13:41;;;;;;;;;;;25.20;64.10;;;;;;5813900;28;19937;-40
2022/09/13 12:16:47;;;;;;;;;;;25.40;64.60;;;;;;5794201;28;34995;-40
2022/09/13 12:19:53;;;;;;;;;;;25.50;64.60;;;;;;5789698;28;22490;-40
2022/09/13 12:22:57;;;;;;;;;;;25.80;64.90;;;;;;5802572;28;19941;-40
2022/09/13 12:26:04;;;;;;;;;;;25.50;64.70;;;;;;5781598;28;20949;-41
2022/09/13 12:29:12;;;;;;;;;;;25.70;64.70;;;;;;5824246;28;19934;-39
2022/09/13 12:32:15;;;;;;;;;;;25.40;64.70;;;;;;5805251;28;20036;-40
2022/09/13 12:35:20;;;;;;;;;;;25.70;64.90;;;;;;5805844;28;20138;-43
2022/09/13 12:38:37;;;;;;;;;;;26.50;65.50;;;;;;5842676;28;19941;-41
2022/09/13 12:41:46;;;;;;;;;;;25.30;64.70;;;;;;5856181;28;20982;-41
2022/09/13 12:44:53;;;;;;;;;;;25.50;64.70;;;;;;5833344;28;20823;-42
2022/09/13 12:48:10;;;;;;;;;;;25.30;64.50;;;;;;5821909;28;21782;-42
2022/09/13 12:51:15;;;;;;;;;;;25.40;64.70;;;;;;5857324;28;20718;-42
2022/09/13 12:54:30;;;;;;;;;;;25.30;64.50;;;;;;5854590;28;20045;-42
2022/09/13 12:57:38;;;;;;;;;;;25.60;64.80;;;;;;5836410;28;19950;-43
2022/09/13 13:00:42;;;;;;;;;;;25.70;64.90;;;;;;5837745;28;19934;-41
2022/09/13 13:03:49;;;;;;;;;;;25.60;65.00;;;;;;5808582;28;20662;-41
2022/09/13 13:06:52;;;;;;;;;;;25.30;64.60;;;;;;5819443;28;21569;-41
2022/09/13 13:09:54;;;;;;;;;;;25.50;64.90;;;;;;5836037;28;22406;-42
2022/09/13 13:13:08;;;;;;;;;;;25.80;65.10;;;;;;5822376;28;19934;-41
2022/09/13 13:16:20;;;;;;;;;;;25.60;65.10;;;;;;5837936;28;20020;-44
2022/09/13 13:19:31;;;;;;;;;;;25.20;64.70;;;;;;5845061;28;19934;-43
2022/09/13 13:22:48;;;;;;;;;;;25.60;65.00;;;;;;5861630;28;19985;-42
2022/09/13 13:25:55;;;;;;;;;;;25.70;64.90;;;;;;5858295;28;20049;-42
2022/09/13 13:29:10;;;;;;;;;;;25.50;65.10;;;;;;5883548;28;19946;-42
2022/09/13 13:32:12;;;;;;;;;;;25.70;65.10;;;;;;5801595;28;21239;-40
2022/09/13 13:35:28;;;;;;;;;;;26.20;65.20;;;;;;5815382;28;19992;-41
2022/09/13 13:38:40;;;;;;;;;;;25.40;64.80;;;;;;5818751;28;20021;-40
2022/09/13 13:41:45;;;;;;;;;;;25.40;65.00;;;;;;5864583;28;20305;-41
2022/09/13 13:44:55;;;;;;;;;;;25.50;65.00;;;;;;5878606;28;20076;-41
2022/09/13 13:48:08;;;;;;;;;;;25.10;64.80;;;;;;5860896;28;21362;-41
2022/09/13 13:51:14;;;;;;;;;;;25.70;65.10;;;;;;5883704;28;20012;-41
2022/09/13 13:54:26;;;;;;;;;;;25.40;65.00;;;;;;5837284;28;20124;-41
2022/09/13 13:57:30;;;;;;;;;;;25.70;64.90;;;;;;5873720;28;19941;-42
2022/09/13 14:00:33;;;;;;;;;;;25.60;65.10;;;;;;5856941;28;20013;-41
2022/09/13 14:03:46;;;;;;;;;;;25.80;65.10;;;;;;5840099;28;20005;-41
2022/09/13 14:06:52;;;;;;;;;;;25.70;65.00;;;;;;5830586;28;20004;-40
2022/09/13 14:09:57;;;;;;;;;;;25.60;65.00;;;;;;5828999;28;19934;-41
2022/09/13 14:13:15;;;;;;;;;;;25.30;64.80;;;;;;5796349;28;19941;-40
2022/09/13 14:16:23;;;;;;;;;;;25.90;64.90;;;;;;5762067;28;20004;-40
2022/09/13 14:19:33;;;;;;;;;;;26.00;65.90;;;;;;5823961;28;19934;-40
2022/09/13 14:22:34;;;;;;;;;;;25.90;65.20;;;;;;5851902;28;19934;-41
2022/09/13 14:25:36;;;;;;;;;;;26.20;65.80;;;;;;5867114;28;19934;-40
2022/09/13 14:28:39;;;;;;;;;;;26.00;65.20;;;;;;5873953;28;19942;-39
2022/09/13 14:31:44;;;;;;;;;;;25.70;65.10;;;;;;5868665;28;19973;-40
2022/09/13 14:34:54;;;;;;;;;;;25.90;65.00;;;;;;5856702;28;19940;-40
2022/09/13 14:38:08;;;;;;;;;;;26.00;65.60;;;;;;5842000;28;19934;-41
2022/09/13 14:41:12;;;;;;;;;;;25.70;65.00;;;;;;5856800;28;20037;-40
2022/09/13 14:44:16;;;;;;;;;;;25.90;65.20;;;;;;5873440;28;20028;-39
2022/09/13 14:47:27;;;;;;;;;;;25.90;65.20;;;;;;5894917;28;21523;-39
2022/09/13 14:50:31;;;;;;;;;;;25.90;65.30;;;;;;5848683;28;23732;-39
2022/09/13 14:53:34;;;;;;;;;;;25.50;65.00;;;;;;5836382;28;20012;-40
2022/09/13 14:56:38;;;;;;;;;;;25.60;65.10;;;;;;5841214;28;21436;-39
2022/09/13 14:59:43;;;;;;;;;;;26.00;65.20;;;;;;5821670;28;21528;-40
2022/09/13 15:02:47;;;;;;;;;;;25.80;65.30;;;;;;5827460;28;19953;-40
2022/09/13 15:05:50;;;;;;;;;;;25.40;64.90;;;;;;5864264;28;19933;-39
2022/09/13 15:08:52;;;;;;;;;;;25.50;65.20;;;;;;5869796;28;19941;-39
2022/09/13 15:11:55;;;;;;;;;;;25.90;65.60;;;;;;5893856;28;19939;-39
2022/09/13 15:15:13;;;;;;;;;;;25.30;65.00;;;;;;5874147;28;19934;-40
2022/09/13 15:18:23;;;;;;;;;;;25.80;65.30;;;;;;5893989;28;19942;-40
2022/09/13 15:21:25;;;;;;;;;;;25.50;65.30;;;;;;5887864;28;19934;-40
2022/09/13 15:24:30;;;;;;;;;;;25.90;65.50;;;;;;5901950;28;20025;-39
2022/09/13 15:27:41;;;;;;;;;;;25.50;65.40;;;;;;5884826;28;19993;-40
2022/09/13 15:30:43;;;;;;;;;;;25.40;65.40;;;;;;5900625;28;19934;-40
2022/09/13 15:33:45;;;;;;;;;;;25.70;65.40;;;;;;5887628;28;20238;-39
2022/09/13 15:37:01;;;;;;;;;;;25.40;65.70;;;;;;5891043;28;19934;-39
2022/09/13 15:40:13;;;;;;;;;;;25.70;65.60;;;;;;5898685;28;20957;-40
2022/09/13 15:43:14;;;;;;;;;;;25.80;63.30;;;;;;5915322;28;19944;-39
2022/09/13 15:46:17;;;;;;;;;;;25.60;65.50;;;;;;5925229;28;20319;-40
2022/09/13 15:49:20;;;;;;;;;;;25.60;65.70;;;;;;5927685;28;19945;-41
2022/09/13 15:52:22;;;;;;;;;;;25.60;65.50;;;;;;5920755;28;19941;-40
2022/09/13 15:55:24;;;;;;;;;;;25.70;65.80;;;;;;5956281;28;19941;-39
2022/09/13 15:58:26;;;;;;;;;;;25.50;65.80;;;;;;5932716;28;20552;-41
2022/09/13 16:01:27;;;;;;;;;;;25.70;65.90;;;;;;5929232;28;22042;-39
2022/09/13 16:04:29;;;;;;;;;;;25.50;65.70;;;;;;5949826;28;19934;-40
2022/09/13 16:07:30;;;;;;;;;;;25.70;65.80;;;;;;5957583;28;20716;-40
2022/09/13 16:10:32;;;;;;;;;;;25.60;65.80;;;;;;5976210;28;19933;-40
2022/09/13 16:13:34;;;;;;;;;;;25.50;65.80;;;;;;5941815;28;20264;-40
2022/09/13 16:16:35;;;;;;;;;;;25.30;65.80;;;;;;5965945;28;20950;-40
2022/09/13 16:19:41;;;;;;;;;;;25.60;66.10;;;;;;5982864;28;21509;-39
2022/09/13 16:22:43;;;;;;;;;;;25.60;66.00;;;;;;5980917;28;19934;-40
2022/09/13 16:25:46;;;;;;;;;;;25.70;66.10;;;;;;6003565;28;20873;-39
2022/09/13 16:28:48;;;;;;;;;;;25.50;65.80;;;;;;5997982;28;19933;-39
2022/09/13 16:31:49;;;;;;;;;;;25.60;66.30;;;;;;6005205;28;20635;-41
2022/09/13 16:34:52;;;;;;;;;;;25.20;65.80;;;;;;5984821;28;19934;-40
2022/09/13 16:37:54;;;;;;;;;;;25.60;66.40;;;;;;6022233;28;20020;-40
2022/09/13 16:40:55;;;;;;;;;;;25.40;66.20;;;;;;6018149;28;20590;-40
2022/09/13 16:43:57;;;;;;;;;;;25.50;66.40;;;;;;6030454;28;19940;-40
2022/09/13 16:46:58;;;;;;;;;;;25.20;66.10;;;;;;6048393;28;19941;-39
2022/09/13 16:50:00;;;;;;;;;;;25.60;66.60;;;;;;6050848;28;19934;-40
2022/09/13 16:53:01;;;;;;;;;;;25.50;66.50;;;;;;6042897;28;20996;-40
2022/09/13 16:56:03;;;;;;;;;;;25.90;66.80;;;;;;6054916;28;19941;-40
2022/09/13 16:59:07;;;;;;;;;;;25.20;66.30;;;;;;6039330;28;22406;-41
2022/09/13 17:02:09;;;;;;;;;;;25.50;66.70;;;;;;6050016;28;20023;-44
2022/09/13 17:05:12;;;;;;;;;;;25.40;66.40;;;;;;6060446;28;20751;-41
2022/09/13 17:08:14;;;;;;;;;;;25.40;66.50;;;;;;6065657;28;19940;-40
2022/09/13 17:11:16;;;;;;;;;;;25.40;66.60;;;;;;6037383;28;19934;-40
2022/09/13 17:14:18;;;;;;;;;;;25.60;66.70;;;;;;6042300;28;21539;-41
2022/09/13 17:17:19;;;;;;;;;;;25.40;66.60;;;;;;6072225;28;19926;-40
2022/09/13 17:20:21;;;;;;;;;;;25.80;67.10;;;;;;6067340;28;19938;-41
2022/09/13 17:23:22;;;;;;;;;;;25.40;66.70;;;;;;6063937;28;20262;-42
2022/09/13 17:26:24;;;;;;;;;;;25.50;67.00;;;;;;6062388;28;19942;-45
2022/09/13 17:29:29;;;;;;;;;;;25.30;66.70;;;;;;6071519;28;20908;-43
2022/09/13 17:32:30;;;;;;;;;;;25.90;67.30;;;;;;6039382;28;20755;-43
2022/09/13 17:35:33;;;;;;;;;;;25.50;66.90;;;;;;6059633;28;20056;-45
2022/09/13 17:38:35;;;;;;;;;;;25.60;66.60;;;;;;6080915;28;19935;-44
2022/09/13 17:41:36;;;;;;;;;;;25.50;66.50;;;;;;6077226;28;19937;-42
2022/09/13 17:44:38;;;;;;;;;;;25.10;66.70;;;;;;6074318;28;20060;-43
2022/09/13 17:47:39;;;;;;;;;;;25.10;66.60;;;;;;6073049;28;20421;-42
2022/09/13 17:50:41;;;;;;;;;;;25.60;67.30;;;;;;6077149;28;19934;-41
2022/09/13 17:53:47;;;;;;;;;;;25.50;67.20;;;;;;6091152;28;19965;-41
2022/09/13 17:56:52;;;;;;;;;;;25.10;66.80;;;;;;6090744;28;19930;-45